Time;durP1;ratioP1;P1;durP2;ratioP2;P2;SDS_P1;SDS_P2;PMS_P1;PMS_P2;Temp;Humidity;BMP_temperature;BMP_pressure;BME280_temperature;BME280_humidity;BME280_pressure;Samples;Min_cycle;Max_cycle;Signal;HPM_P1;HPM_P2
2020/12/01 00:01:25;;;;;;;41.67;25.48;;;;;;;0.59;77.04;99064.91;5093991;28;20048;-67
2020/12/01 00:03:52;;;;;;;45.53;25.48;;;;;;;0.59;77.10;99057.09;5093684;28;20085;-67
2020/12/01 00:06:19;;;;;;;43.47;25.52;;;;;;;0.60;77.29;99048.34;5092530;28;20596;-67
2020/12/01 00:08:45;;;;;;;42.00;24.52;;;;;;;0.56;77.49;99039.13;5092246;28;20043;-67
2020/12/01 00:11:15;;;;;;;42.55;26.02;;;;;;;0.54;77.55;99035.00;5093855;28;20097;-67
2020/12/01 00:13:42;;;;;;;38.90;22.88;;;;;;;0.51;77.60;99028.25;5094358;28;20036;-66
2020/12/01 00:16:11;;;;;;;40.95;24.00;;;;;;;0.61;77.60;99033.53;5093538;28;20067;-66
2020/12/01 00:18:39;;;;;;;41.10;24.05;;;;;;;0.63;77.49;99021.25;5093355;28;20044;-66
2020/12/01 00:21:10;;;;;;;39.70;22.45;;;;;;;0.62;77.26;99024.81;5093562;28;20151;-67
2020/12/01 00:23:37;;;;;;;37.58;21.67;;;;;;;0.60;77.29;99013.69;5093534;28;20043;-67
2020/12/01 00:26:05;;;;;;;38.15;22.50;;;;;;;0.62;77.40;99006.59;5092394;28;20040;-67
2020/12/01 00:28:32;;;;;;;40.03;21.92;;;;;;;0.69;77.21;99013.78;5091729;28;20040;-67
2020/12/01 00:30:58;;;;;;;36.15;22.65;;;;;;;0.73;77.30;99009.13;5093228;28;20044;-67
2020/12/01 00:33:25;;;;;;;37.50;21.83;;;;;;;0.72;77.12;99008.31;5093485;28;20101;-67
2020/12/01 00:35:53;;;;;;;38.80;22.92;;;;;;;0.74;77.17;98993.41;5093353;28;20181;-67
2020/12/01 00:38:20;;;;;;;36.53;20.45;;;;;;;0.73;77.03;98994.38;5093192;28;20048;-67
2020/12/01 00:40:47;;;;;;;36.92;22.00;;;;;;;0.76;76.96;98992.47;5092971;28;20048;-67
2020/12/01 00:43:15;;;;;;;33.28;20.45;;;;;;;0.77;76.93;98983.69;5093021;28;20051;-67
2020/12/01 00:45:43;;;;;;;37.20;21.45;;;;;;;0.81;77.03;98987.69;5092911;28;20044;-67
2020/12/01 00:48:10;;;;;;;38.05;21.63;;;;;;;0.80;76.91;98967.84;5091475;28;20047;-67
2020/12/01 00:50:37;;;;;;;36.95;20.77;;;;;;;0.77;76.96;98973.28;5091772;28;20048;-67
2020/12/01 00:53:05;;;;;;;35.95;20.15;;;;;;;0.74;77.13;98963.97;5091597;28;20048;-67
2020/12/01 00:55:32;;;;;;;41.70;22.95;;;;;;;0.79;77.12;98971.41;5091622;28;20526;-67
2020/12/01 00:58:01;;;;;;;37.10;21.60;;;;;;;0.78;77.13;98960.16;5091079;28;20044;-67
2020/12/01 01:00:30;;;;;;;37.17;22.25;;;;;;;0.79;77.06;98953.19;5091615;28;20106;-67
2020/12/01 01:03:10;;;;;;;35.85;21.55;;;;;;;0.80;77.14;98958.25;5091472;28;20130;-67
2020/12/01 01:05:37;;;;;;;34.38;22.10;;;;;;;0.82;77.26;98947.72;5092770;28;20054;-67
2020/12/01 01:08:04;;;;;;;35.78;19.98;;;;;;;0.83;77.17;98946.75;5092375;28;20044;-67
2020/12/01 01:10:33;;;;;;;34.55;20.05;;;;;;;0.83;77.19;98946.75;5092549;28;20051;-67
2020/12/01 01:13:01;;;;;;;37.03;22.38;;;;;;;0.87;77.23;98942.97;5092596;28;20051;-67
2020/12/01 01:15:30;;;;;;;39.00;23.02;;;;;;;0.93;77.17;98942.44;5092347;28;20059;-67
2020/12/01 01:17:59;;;;;;;34.50;20.88;;;;;;;1.01;77.11;98952.22;5092268;28;20516;-67
2020/12/01 01:20:26;;;;;;;35.78;20.63;;;;;;;0.94;77.11;98939.72;5092421;28;20040;-67
2020/12/01 01:22:53;;;;;;;35.47;21.05;;;;;;;1.06;77.09;98934.41;5092557;28;20491;-67
2020/12/01 01:25:20;;;;;;;38.72;22.23;;;;;;;1.03;77.02;98932.09;5092274;28;20048;-67
2020/12/01 01:27:48;;;;;;;34.10;20.17;;;;;;;1.04;76.84;98941.53;5092049;28;20047;-67
2020/12/01 01:30:17;;;;;;;36.88;20.00;;;;;;;1.01;76.99;98934.81;5092231;28;20489;-67
2020/12/01 01:32:44;;;;;;;36.40;21.40;;;;;;;1.02;77.06;98941.69;5092658;28;20067;-67
2020/12/01 01:35:14;;;;;;;34.13;20.23;;;;;;;1.01;77.07;98931.38;5092182;28;20097;-67
2020/12/01 01:37:41;;;;;;;34.15;17.42;;;;;;;0.94;77.21;98934.50;5090341;28;20051;-67
2020/12/01 01:40:15;;;;;;;33.20;19.60;;;;;;;1.00;77.24;98922.75;5091085;28;20066;-67
2020/12/01 01:42:42;;;;;;;33.22;20.55;;;;;;;0.97;77.32;98923.81;5092129;28;20036;-67
2020/12/01 01:45:11;;;;;;;37.63;20.90;;;;;;;0.92;77.31;98914.75;5091994;28;20036;-67
2020/12/01 01:47:38;;;;;;;31.92;20.58;;;;;;;0.97;77.31;98907.38;5090699;28;20039;-67
2020/12/01 01:50:13;;;;;;;33.65;20.10;;;;;;;0.99;77.38;98914.13;5091866;28;20539;-67
2020/12/01 01:52:42;;;;;;;37.97;21.10;;;;;;;1.02;77.62;98912.19;5092147;28;20375;-67
2020/12/01 01:55:12;;;;;;;33.88;19.30;;;;;;;1.03;77.55;98903.47;5092031;28;20114;-67
2020/12/01 01:57:42;;;;;;;33.97;19.30;;;;;;;1.01;77.62;98906.16;5091763;28;20451;-67
2020/12/01 02:00:33;;;;;;;33.42;19.83;;;;;;;0.96;77.83;98910.94;5090665;28;20117;-67
2020/12/01 02:03:00;;;;;;;35.50;19.80;;;;;;;0.99;78.00;98903.72;5092211;28;20042;-67
2020/12/01 02:05:26;;;;;;;38.22;21.10;;;;;;;0.94;77.87;98902.47;5091794;28;20055;-67
2020/12/01 02:07:53;;;;;;;32.25;19.13;;;;;;;0.96;77.89;98892.72;5091610;28;20047;-67
2020/12/01 02:10:20;;;;;;;33.75;19.52;;;;;;;1.01;77.91;98881.91;5091846;28;20047;-67
2020/12/01 02:12:48;;;;;;;37.85;20.83;;;;;;;1.02;78.08;98875.75;5091951;28;20051;-67
2020/12/01 02:15:16;;;;;;;36.63;21.05;;;;;;;0.96;78.12;98883.13;5091799;28;20036;-66
2020/12/01 02:17:44;;;;;;;36.75;20.70;;;;;;;0.91;78.03;98882.69;5091543;28;20102;-67
2020/12/01 02:20:13;;;;;;;35.80;21.02;;;;;;;0.93;78.23;98870.38;5091746;28;20402;-67
2020/12/01 02:22:41;;;;;;;35.95;22.00;;;;;;;0.99;78.26;98867.25;5091869;28;20494;-67
2020/12/01 02:25:08;;;;;;;36.58;20.83;;;;;;;1.03;78.23;98867.00;5091762;28;20123;-66
2020/12/01 02:27:36;;;;;;;32.60;20.00;;;;;;;1.01;78.21;98855.88;5091397;28;20051;-66
2020/12/01 02:30:03;;;;;;;35.47;19.73;;;;;;;0.95;78.17;98850.25;5091715;28;20131;-66
2020/12/01 02:32:30;;;;;;;31.70;19.45;;;;;;;0.99;78.19;98849.03;5091829;28;20378;-66
2020/12/01 02:34:58;;;;;;;35.75;20.50;;;;;;;1.03;78.19;98843.56;5091722;28;20059;-66
2020/12/01 02:37:28;;;;;;;31.48;19.55;;;;;;;1.04;78.13;98842.63;5091334;28;20044;-66
2020/12/01 02:39:55;;;;;;;35.60;21.40;;;;;;;1.07;77.96;98834.56;5091533;28;20043;-67
2020/12/01 02:42:27;;;;;;;33.83;19.05;;;;;;;0.99;78.08;98827.41;5091555;28;20044;-66
2020/12/01 02:44:57;;;;;;;32.50;19.17;;;;;;;1.02;78.23;98834.94;5091763;28;20036;-66
2020/12/01 02:47:39;;;;;;;32.63;18.42;;;;;;;1.03;78.24;98825.34;5090165;28;20044;-66
2020/12/01 02:50:07;;;;;;;32.45;19.77;;;;;;;1.03;78.25;98825.34;5093798;28;20048;-66
2020/12/01 02:52:33;;;;;;;32.75;19.73;;;;;;;1.04;78.59;98824.41;5095301;28;20040;-65
2020/12/01 02:55:00;;;;;;;32.75;19.40;;;;;;;1.01;78.79;98819.44;5095416;28;20394;-66
2020/12/01 02:57:27;;;;;;;33.70;19.77;;;;;;;0.91;78.73;98817.63;5094820;28;20044;-66
2020/12/01 02:59:54;;;;;;;34.42;21.25;;;;;;;0.83;79.13;98817.47;5095317;28;20075;-66
2020/12/01 03:02:21;;;;;;;32.33;18.92;;;;;;;0.85;79.75;98812.94;5095605;28;20494;-65
2020/12/01 03:04:48;;;;;;;34.50;20.55;;;;;;;0.88;80.01;98811.84;5094506;28;20055;-65
2020/12/01 03:07:14;;;;;;;34.97;20.33;;;;;;;0.88;80.32;98817.88;5094582;28;20047;-65
2020/12/01 03:09:41;;;;;;;31.17;19.17;;;;;;;0.89;80.71;98809.13;5094822;28;20047;-65
2020/12/01 03:12:08;;;;;;;33.70;20.30;;;;;;;0.93;81.08;98801.88;5094854;28;20043;-65
2020/12/01 03:14:34;;;;;;;31.13;19.15;;;;;;;1.02;81.26;98803.72;5094882;28;20040;-66
2020/12/01 03:17:02;;;;;;;29.73;17.98;;;;;;;0.98;81.03;98797.94;5094415;28;20044;-66
2020/12/01 03:19:28;;;;;;;33.40;18.98;;;;;;;0.96;81.05;98796.41;5094706;28;20048;-66
2020/12/01 03:21:56;;;;;;;27.40;18.08;;;;;;;0.96;81.36;98781.63;5094548;28;20075;-65
2020/12/01 03:24:23;;;;;;;31.30;17.98;;;;;;;0.93;81.26;98786.25;5094598;28;20114;-66
2020/12/01 03:26:49;;;;;;;27.33;17.63;;;;;;;0.87;81.29;98785.00;5094294;28;20036;-66
2020/12/01 03:29:16;;;;;;;30.45;18.42;;;;;;;0.86;81.65;98783.38;5093163;28;20539;-66
2020/12/01 03:31:43;;;;;;;31.13;18.60;;;;;;;0.88;81.78;98784.06;5094460;28;20119;-66
2020/12/01 03:34:11;;;;;;;28.48;17.55;;;;;;;0.87;81.79;98785.00;5094419;28;20040;-66
2020/12/01 03:36:38;;;;;;;29.40;17.27;;;;;;;0.93;81.98;98796.66;5093014;28;20052;-66
2020/12/01 03:39:05;;;;;;;29.48;17.27;;;;;;;1.02;82.03;98787.25;5094260;28;20043;-66
2020/12/01 03:41:31;;;;;;;29.92;17.35;;;;;;;1.01;81.91;98780.38;5094080;28;20074;-66
2020/12/01 03:43:58;;;;;;;28.23;17.48;;;;;;;1.00;81.81;98784.78;5094145;28;20047;-66
2020/12/01 03:46:25;;;;;;;27.95;16.85;;;;;;;1.10;81.92;98779.59;5094383;28;20608;-65
2020/12/01 03:48:51;;;;;;;23.40;15.48;;;;;;;1.05;81.78;98772.19;5093837;28;20040;-65
2020/12/01 03:51:19;;;;;;;23.27;15.43;;;;;;;1.07;81.74;98783.31;5094092;28;20051;-66
2020/12/01 03:53:46;;;;;;;23.73;14.85;;;;;;;1.04;81.51;98785.34;5094273;28;20043;-65
2020/12/01 03:56:12;;;;;;;23.48;15.15;;;;;;;1.05;81.43;98774.78;5094029;28;20044;-65
2020/12/01 03:58:39;;;;;;;25.85;14.90;;;;;;;1.09;81.27;98770.13;5093715;28;20036;-66
2020/12/01 04:01:06;;;;;;;23.13;14.93;;;;;;;1.13;81.38;98771.53;5093711;28;20048;-66
2020/12/01 04:03:33;;;;;;;20.50;12.98;;;;;;;1.16;80.86;98771.25;5093796;28;20054;-65
2020/12/01 04:05:59;;;;;;;19.88;13.82;;;;;;;1.13;80.66;98761.91;5093617;28;20048;-66
2020/12/01 04:08:27;;;;;;;19.48;13.35;;;;;;;1.14;80.54;98758.38;5092054;28;20051;-66
2020/12/01 04:10:54;;;;;;;19.52;12.88;;;;;;;1.16;80.43;98761.66;5093530;28;20451;-65
2020/12/01 04:13:20;;;;;;;19.55;13.13;;;;;;;1.16;79.93;98763.44;5093617;28;20405;-66
2020/12/01 04:15:47;;;;;;;18.63;12.07;;;;;;;1.12;79.83;98756.88;5093543;28;20514;-66
2020/12/01 04:18:14;;;;;;;19.42;13.30;;;;;;;1.08;79.84;98763.28;5093122;28;20071;-65
2020/12/01 04:20:41;;;;;;;20.88;13.90;;;;;;;1.03;79.91;98760.28;5093452;28;20055;-65
2020/12/01 04:23:08;;;;;;;22.48;14.05;;;;;;;1.09;80.06;98754.53;5093394;28;20129;-65
2020/12/01 04:25:35;;;;;;;19.70;12.85;;;;;;;1.13;79.78;98748.09;5093225;28;20040;-65
2020/12/01 04:28:05;;;;;;;21.48;14.68;;;;;;;1.11;79.87;98743.03;5093449;28;20048;-65
2020/12/01 04:30:32;;;;;;;22.95;13.98;;;;;;;1.13;79.84;98743.69;5093204;28;20456;-64
2020/12/01 04:32:59;;;;;;;24.60;14.85;;;;;;;1.11;79.90;98737.00;5093290;28;20047;-65
2020/12/01 04:35:27;;;;;;;25.58;15.75;;;;;;;1.13;79.77;98741.09;5093193;28;20059;-65
2020/12/01 04:37:56;;;;;;;24.83;14.88;;;;;;;1.17;79.93;98739.88;5091911;28;20060;-65
2020/12/01 04:40:27;;;;;;;23.38;15.55;;;;;;;1.18;79.89;98732.88;5093069;28;20426;-65
2020/12/01 04:43:01;;;;;;;28.10;15.63;;;;;;;1.23;79.72;98734.13;5092929;28;20066;-65
2020/12/01 04:45:28;;;;;;;26.58;16.75;;;;;;;1.26;79.76;98733.03;5091920;28;20581;-65
2020/12/01 04:47:59;;;;;;;25.08;15.57;;;;;;;1.32;79.61;98729.91;5092674;28;20584;-65
2020/12/01 04:50:32;;;;;;;26.35;15.75;;;;;;;1.25;79.52;98731.38;5092837;28;20448;-65
2020/12/01 04:53:18;;;;;;;24.55;15.65;;;;;;;1.20;79.58;98721.38;5092910;28;20062;-65
2020/12/01 04:56:04;;;;;;;27.52;15.35;;;;;;;1.17;79.79;98720.81;5092735;28;20377;-65
2020/12/01 04:58:58;;;;;;;23.80;15.57;;;;;;;1.28;79.73;98725.09;5092375;28;20062;-65
2020/12/01 05:01:48;;;;;;;29.48;17.15;;;;;;;1.27;79.70;98711.25;5092690;28;20046;-65
2020/12/01 05:04:26;;;;;;;24.85;14.98;;;;;;;1.19;79.87;98713.72;5092620;28;20123;-65
2020/12/01 05:07:04;;;;;;;25.52;16.52;;;;;;;1.11;79.80;98713.56;5092441;28;20036;-65
2020/12/01 05:09:37;;;;;;;27.02;16.73;;;;;;;1.16;80.00;98716.59;5092478;28;20040;-65
2020/12/01 05:12:10;;;;;;;28.07;16.63;;;;;;;1.25;79.99;98723.56;5092085;28;20496;-66
2020/12/01 05:14:42;;;;;;;27.80;16.65;;;;;;;1.29;79.93;98727.56;5092512;28;20055;-65
2020/12/01 05:17:59;;;;;;;27.63;16.50;;;;;;;1.29;79.81;98719.75;5092269;28;20065;-65
2020/12/01 05:20:26;;;;;;;26.45;16.02;;;;;;;1.23;79.78;98721.13;5093138;28;20058;-65
2020/12/01 05:22:56;;;;;;;26.85;16.30;;;;;;;1.23;79.91;98721.13;5092339;28;20040;-65
2020/12/01 05:25:25;;;;;;;29.95;17.17;;;;;;;1.26;80.06;98722.59;5090900;28;20425;-65
2020/12/01 05:28:08;;;;;;;27.85;17.70;;;;;;;1.31;80.09;98722.22;5091963;28;20097;-65
2020/12/01 05:30:37;;;;;;;27.45;17.83;;;;;;;1.37;80.03;98724.28;5092520;28;20040;-65
2020/12/01 05:33:16;;;;;;;30.83;17.35;;;;;;;1.41;79.85;98725.66;5092027;28;20055;-65
2020/12/01 05:35:43;;;;;;;29.63;17.10;;;;;;;1.40;79.94;98724.00;5092163;28;20054;-65
2020/12/01 05:38:17;;;;;;;25.83;14.95;;;;;;;1.38;79.85;98725.91;5091700;28;20048;-65
2020/12/01 05:40:50;;;;;;;27.05;16.92;;;;;;;1.34;79.90;98725.34;5092159;28;20052;-65
2020/12/01 05:43:25;;;;;;;27.63;17.33;;;;;;;1.37;80.07;98730.31;5090818;28;20048;-65
2020/12/01 05:46:06;;;;;;;25.67;15.82;;;;;;;1.35;79.92;98726.22;5091974;28;20037;-65
2020/12/01 05:48:44;;;;;;;29.05;16.27;;;;;;;1.40;79.99;98731.81;5091667;28;20043;-65
2020/12/01 05:51:14;;;;;;;24.65;15.52;;;;;;;1.44;80.06;98723.59;5091966;28;20044;-65
2020/12/01 05:53:41;;;;;;;26.33;15.27;;;;;;;1.43;79.83;98727.16;5092008;28;20044;-65
2020/12/01 05:56:17;;;;;;;29.88;15.95;;;;;;;1.46;79.98;98724.28;5094391;28;20048;-65
2020/12/01 05:58:47;;;;;;;27.92;16.42;;;;;;;1.43;80.06;98716.75;5094399;28;20052;-65
2020/12/01 06:01:14;;;;;;;27.83;17.27;;;;;;;1.47;79.96;98727.72;5092712;28;20052;-66
2020/12/01 06:03:58;;;;;;;29.10;18.23;;;;;;;1.41;79.88;98725.66;5090736;28;20139;-65
2020/12/01 06:06:34;;;;;;;30.17;17.23;;;;;;;1.41;80.02;98723.03;5091891;28;20310;-65
2020/12/01 06:09:15;;;;;;;30.73;18.00;;;;;;;1.46;80.20;98721.66;5091505;28;20436;-65
2020/12/01 06:11:47;;;;;;;27.45;16.67;;;;;;;1.51;80.03;98718.69;5092042;28;20036;-65
2020/12/01 06:14:23;;;;;;;24.90;15.90;;;;;;;1.56;79.96;98726.06;5091987;28;20071;-65
2020/12/01 06:16:55;;;;;;;26.42;16.05;;;;;;;1.54;79.93;98720.97;5091895;28;20047;-65
2020/12/01 06:19:38;;;;;;;24.83;14.90;;;;;;;1.52;79.76;98725.53;5092151;28;20048;-66
2020/12/01 06:22:33;;;;;;;25.10;16.67;;;;;;;1.57;79.88;98720.72;5092012;28;20067;-66
2020/12/01 06:25:20;;;;;;;23.40;15.48;;;;;;;1.57;79.60;98720.72;5094192;28;20114;-66
2020/12/01 06:28:13;;;;;;;26.38;16.05;;;;;;;1.58;79.77;98714.53;5095633;28;20044;-65
2020/12/01 06:30:56;;;;;;;20.70;13.00;;;;;;;1.55;79.44;98722.66;5095688;28;20055;-66
2020/12/01 06:33:54;;;;;;;22.42;14.93;;;;;;;1.51;79.74;98717.81;5095972;28;20032;-65
2020/12/01 06:36:56;;;;;;;24.10;15.35;;;;;;;1.55;79.77;98716.59;5096148;28;20047;-65
2020/12/01 06:39:34;;;;;;;20.25;13.38;;;;;;;1.55;79.81;98719.19;5095532;28;20551;-66
2020/12/01 06:42:10;;;;;;;19.48;13.45;;;;;;;1.61;79.90;98716.06;5094036;28;20055;-66
2020/12/01 06:44:39;;;;;;;19.50;13.02;;;;;;;1.53;79.51;98723.75;5095308;28;20486;-66
2020/12/01 06:47:06;;;;;;;22.30;13.88;;;;;;;1.51;79.75;98720.44;5093680;28;20048;-66
2020/12/01 06:49:36;;;;;;;19.98;13.65;;;;;;;1.53;79.58;98724.56;5095202;28;20055;-66
2020/12/01 06:52:06;;;;;;;19.67;13.00;;;;;;;1.49;79.61;98721.41;5093969;28;20480;-65
2020/12/01 06:54:33;;;;;;;22.08;14.18;;;;;;;1.52;79.76;98722.09;5095391;28;20044;-66
2020/12/01 06:57:04;;;;;;;19.58;13.63;;;;;;;1.57;79.85;98722.50;5094846;28;20044;-66
2020/12/01 06:59:31;;;;;;;20.25;12.85;;;;;;;1.62;79.77;98721.13;5095226;28;20044;-66
2020/12/01 07:02:16;;;;;;;21.10;13.57;;;;;;;1.62;79.56;98723.72;5095117;28;20048;-65
2020/12/01 07:04:44;;;;;;;31.70;21.85;;;;;;;1.63;79.68;98732.38;5093579;28;20044;-65
2020/12/01 07:07:22;;;;;;;25.38;15.63;;;;;;;1.67;79.76;98731.13;5094702;28;20465;-65
2020/12/01 07:09:51;;;;;;;30.65;22.52;;;;;;;1.65;79.54;98725.25;5094764;28;20055;-64
2020/12/01 07:12:36;;;;;;;21.20;13.82;;;;;;;1.65;79.70;98725.25;5094746;28;20044;-64
2020/12/01 07:15:07;;;;;;;22.08;14.85;;;;;;;1.65;79.73;98733.06;5094680;28;20055;-66
2020/12/01 07:17:45;;;;;;;23.02;14.15;;;;;;;1.64;79.64;98729.63;5094579;28;20040;-66
2020/12/01 07:20:30;;;;;;;21.17;14.55;;;;;;;1.64;79.69;98723.59;5094561;28;20059;-63
2020/12/01 07:23:05;;;;;;;21.35;14.45;;;;;;;1.64;79.55;98728.81;5094891;28;20048;-66
2020/12/01 07:25:37;;;;;;;19.52;13.50;;;;;;;1.63;79.59;98724.53;5094531;28;20036;-65
2020/12/01 07:28:19;;;;;;;20.48;13.57;;;;;;;1.60;79.70;98732.66;5094170;28;20047;-65
2020/12/01 07:30:55;;;;;;;22.27;13.43;;;;;;;1.62;79.63;98731.53;5094484;28;20051;-64
2020/12/01 07:33:27;;;;;;;20.10;13.30;;;;;;;1.67;79.45;98726.75;5094456;28;20104;-66
2020/12/01 07:35:58;;;;;;;21.30;12.32;;;;;;;1.69;79.36;98722.22;5093806;28;20044;-65
2020/12/01 07:38:33;;;;;;;17.92;12.70;;;;;;;1.80;79.17;98718.66;5094137;28;20051;-65
2020/12/01 07:41:23;;;;;;;20.13;13.45;;;;;;;1.80;79.03;98726.47;5094343;28;20113;-65
2020/12/01 07:44:01;;;;;;;19.48;13.20;;;;;;;1.87;78.98;98730.16;5094396;28;20044;-65
2020/12/01 07:46:28;;;;;;;19.33;12.77;;;;;;;1.92;78.92;98727.97;5092773;28;20063;-65
2020/12/01 07:49:00;;;;;;;19.05;13.18;;;;;;;1.94;78.80;98726.03;5093701;28;20040;-65
2020/12/01 07:51:30;;;;;;;21.83;14.20;;;;;;;1.98;78.83;98727.41;5094213;28;20105;-65
2020/12/01 07:53:59;;;;;;;23.98;15.15;;;;;;;1.99;78.74;98723.00;5094346;28;20493;-65
2020/12/01 07:56:29;;;;;;;21.63;13.95;;;;;;;1.99;78.40;98728.22;5093869;28;20036;-65
2020/12/01 07:59:01;;;;;;;26.42;14.98;;;;;;;1.99;78.65;98726.44;5093543;28;20042;-65
2020/12/01 08:01:29;;;;;;;23.23;15.60;;;;;;;2.05;78.46;98730.28;5093821;28;20055;-65
2020/12/01 08:04:04;;;;;;;24.20;15.18;;;;;;;2.12;78.59;98735.75;5093868;28;20405;-65
2020/12/01 08:06:31;;;;;;;23.52;15.90;;;;;;;2.21;78.70;98738.34;5093778;28;20106;-65
2020/12/01 08:08:58;;;;;;;22.00;15.32;;;;;;;2.23;78.11;98740.81;5093564;28;20036;-65
2020/12/01 08:11:24;;;;;;;23.80;15.15;;;;;;;2.17;77.87;98741.38;5093452;28;20055;-65
2020/12/01 08:13:55;;;;;;;27.30;17.27;;;;;;;2.17;78.15;98738.78;5093746;28;20069;-65
2020/12/01 08:16:25;;;;;;;25.55;16.55;;;;;;;2.11;78.22;98734.09;5093591;28;20317;-65
2020/12/01 08:18:53;;;;;;;24.15;14.77;;;;;;;2.18;77.94;98741.22;5093139;28;20044;-65
2020/12/01 08:21:25;;;;;;;24.90;15.93;;;;;;;2.19;78.12;98747.25;5092079;28;20048;-65
2020/12/01 08:23:56;;;;;;;21.52;14.73;;;;;;;2.21;78.16;98747.97;5093318;28;20047;-65
2020/12/01 08:26:25;;;;;;;23.55;15.05;;;;;;;2.22;78.02;98757.41;5093167;28;20486;-65
2020/12/01 08:29:00;;;;;;;25.88;15.77;;;;;;;2.16;78.21;98748.38;5092892;28;20052;-65
2020/12/01 08:31:34;;;;;;;23.42;15.13;;;;;;;2.19;78.06;98750.69;5093375;28;20048;-65
2020/12/01 08:34:13;;;;;;;25.15;15.38;;;;;;;2.24;78.02;98747.66;5093281;28;20047;-65
2020/12/01 08:37:04;;;;;;;26.40;16.10;;;;;;;2.24;77.78;98745.03;5093247;28;20063;-65
2020/12/01 08:39:48;;;;;;;24.35;14.98;;;;;;;2.35;78.06;98751.91;5086962;28;20404;-65
2020/12/01 08:42:22;;;;;;;26.60;16.55;;;;;;;2.40;77.87;98749.69;5093000;28;20058;-65
2020/12/01 08:45:01;;;;;;;26.67;15.93;;;;;;;2.41;77.72;98746.13;5093160;28;20048;-65
2020/12/01 08:47:29;;;;;;;22.65;15.10;;;;;;;2.43;77.76;98752.00;5091821;28;20514;-65
2020/12/01 08:49:56;;;;;;;21.88;15.70;;;;;;;2.42;77.63;98750.38;5092763;28;20113;-66
2020/12/01 08:52:33;;;;;;;26.58;17.63;;;;;;;2.42;77.79;98750.38;5092861;28;20512;-65
2020/12/01 08:55:15;;;;;;;22.40;14.85;;;;;;;2.45;77.86;98750.09;5091503;28;20135;-66
2020/12/01 08:57:42;;;;;;;26.88;16.17;;;;;;;2.56;77.86;98752.50;5092370;28;20465;-65
2020/12/01 09:00:23;;;;;;;21.88;15.23;;;;;;;2.54;77.67;98751.03;5092669;28;20044;-66
2020/12/01 09:02:51;;;;;;;23.17;15.68;;;;;;;2.56;78.19;98752.50;5091462;28;20075;-66
2020/12/01 09:05:29;;;;;;;21.42;14.82;;;;;;;2.56;78.05;98751.69;5092628;28;20478;-65
2020/12/01 09:08:11;;;;;;;20.45;13.55;;;;;;;2.57;78.01;98756.78;5092184;28;20048;-66
2020/12/01 09:10:38;;;;;;;23.10;15.48;;;;;;;2.64;78.09;98752.63;5092638;28;20051;-66
2020/12/01 09:13:12;;;;;;;23.00;15.50;;;;;;;2.80;77.84;98751.19;5092566;28;20044;-66
2020/12/01 09:15:53;;;;;;;21.50;14.15;;;;;;;2.97;77.61;98751.22;5091147;28;20048;-66
2020/12/01 09:18:57;;;;;;;20.42;13.55;;;;;;;3.01;77.18;98748.34;5092037;28;20040;-66
2020/12/01 09:24:18;;;;;;;20.20;14.05;;;;;;;3.00;77.14;98749.31;5090235;28;20040;-66
2020/12/01 09:26:45;;;;;;;22.10;14.63;;;;;;;3.05;77.07;98754.91;5091878;28;20093;-66
2020/12/01 09:29:12;;;;;;;21.08;13.98;;;;;;;3.09;77.22;98751.84;5091892;28;20051;-66
2020/12/01 09:31:40;;;;;;;23.55;13.65;;;;;;;3.09;77.14;98749.25;5090914;28;20214;-66
2020/12/01 09:34:07;;;;;;;17.83;12.60;;;;;;;3.12;77.07;98756.78;5092059;28;20035;-67
2020/12/01 09:36:35;;;;;;;23.73;15.40;;;;;;;3.15;77.04;98755.69;5092694;28;20047;-66
2020/12/01 09:39:01;;;;;;;20.90;13.82;;;;;;;3.21;76.96;98757.69;5092023;28;20054;-65
2020/12/01 09:41:28;;;;;;;19.35;12.98;;;;;;;3.20;76.64;98759.50;5092089;28;20036;-66
2020/12/01 09:44:00;;;;;;;17.95;11.68;;;;;;;3.20;76.45;98758.69;5092143;28;20516;-65
2020/12/01 09:46:32;;;;;;;18.23;13.18;;;;;;;3.23;76.35;98763.63;5092033;28;20456;-66
2020/12/01 09:49:02;;;;;;;17.02;10.93;;;;;;;3.21;76.12;98768.97;5091790;28;20048;-64
2020/12/01 09:51:29;;;;;;;18.30;12.40;;;;;;;3.22;76.16;98761.94;5092028;28;20040;-65
2020/12/01 09:54:17;;;;;;;18.80;12.70;;;;;;;3.13;76.25;98761.03;5092015;28;20047;-64
2020/12/01 09:56:50;;;;;;;19.90;12.75;;;;;;;3.06;76.33;98765.22;5091973;28;20055;-64
2020/12/01 10:05:02;;;;;;;20.10;13.35;;;;;;;3.01;76.38;98759.59;5095988;28;20040;-65
2020/12/01 10:07:46;;;;;;;20.63;12.50;;;;;;;3.10;76.39;98763.97;5095649;28;20036;-64
2020/12/01 10:10:24;;;;;;;19.13;12.68;;;;;;;3.16;76.39;98759.94;5095865;28;20048;-65
2020/12/01 10:13:05;;;;;;;17.48;12.38;;;;;;;3.11;76.26;98755.16;5095962;28;20102;-65
2020/12/01 10:15:51;;;;;;;19.90;12.52;;;;;;;3.04;76.29;98764.53;5094542;28;20498;-65
2020/12/01 10:27:00;;;;;;;19.60;13.10;;;;;;;2.97;76.51;98768.69;5098432;28;20044;-65
2020/12/01 10:35:12;;;;;;;20.35;13.60;;;;;;;3.17;76.19;98759.78;5095782;28;20051;-65
2020/12/01 10:37:50;;;;;;;21.13;13.40;;;;;;;3.18;76.15;98764.06;5095488;28;20070;-65
2020/12/01 10:40:17;;;;;;;24.63;16.05;;;;;;;3.06;76.15;98767.00;5095490;28;20048;-65
2020/12/01 10:42:44;;;;;;;20.02;13.00;;;;;;;3.14;76.30;98767.09;5095323;28;20051;-65
2020/12/01 10:45:11;;;;;;;16.85;11.55;;;;;;;3.20;76.31;98769.94;5095272;28;20105;-65
2020/12/01 10:47:37;;;;;;;20.75;13.50;;;;;;;3.19;76.16;98763.09;5094881;28;20062;-65
2020/12/01 10:50:06;;;;;;;18.17;12.02;;;;;;;3.14;76.29;98760.09;5095517;28;20055;-65
2020/12/01 10:52:33;;;;;;;21.00;13.50;;;;;;;3.14;76.30;98765.31;5094077;28;20052;-65
2020/12/01 10:55:00;;;;;;;16.70;11.98;;;;;;;3.19;76.25;98759.66;5093874;28;20044;-65
2020/12/01 10:57:27;;;;;;;18.45;12.38;;;;;;;3.29;76.36;98760.41;5094702;28;20044;-65
2020/12/01 10:59:54;;;;;;;16.20;11.10;;;;;;;3.27;76.30;98764.16;5093731;28;20433;-65
2020/12/01 11:02:21;;;;;;;16.38;11.30;;;;;;;3.32;76.41;98765.34;5094969;28;20066;-65
2020/12/01 11:04:47;;;;;;;16.05;11.00;;;;;;;3.34;76.14;98759.97;5095050;28;20085;-65
2020/12/01 11:07:14;;;;;;;17.58;12.52;;;;;;;3.32;76.11;98770.56;5094598;28;20059;-65
2020/12/01 11:09:41;;;;;;;17.90;11.55;;;;;;;3.35;76.13;98765.06;5093874;28;20035;-65
2020/12/01 11:12:08;;;;;;;26.48;15.35;;;;;;;3.35;76.28;98766.84;5094816;28;20055;-65
2020/12/01 11:14:34;;;;;;;42.35;24.63;;;;;;;3.39;76.27;98766.41;5094584;28;20047;-65
2020/12/01 11:17:02;;;;;;;26.17;16.83;;;;;;;3.33;76.18;98764.38;5094450;28;20053;-65
2020/12/01 11:19:29;;;;;;;17.55;11.32;;;;;;;3.30;76.33;98767.25;5094827;28;20055;-65
2020/12/01 11:21:55;;;;;;;19.73;12.90;;;;;;;3.37;76.41;98775.34;5093413;28;20059;-65
2020/12/01 11:24:22;;;;;;;18.20;12.20;;;;;;;3.35;76.49;98772.06;5094624;28;20078;-65
2020/12/01 11:26:48;;;;;;;17.88;12.25;;;;;;;3.36;76.64;98776.31;5094384;28;20394;-65
2020/12/01 11:29:15;;;;;;;18.27;12.38;;;;;;;3.38;76.57;98772.56;5094350;28;20048;-65
2020/12/01 11:31:43;;;;;;;18.70;12.25;;;;;;;3.48;76.31;98770.75;5094396;28;20044;-65
2020/12/01 11:34:12;;;;;;;18.25;11.88;;;;;;;3.50;76.27;98767.97;5094508;28;20047;-65
2020/12/01 11:36:39;;;;;;;20.50;13.20;;;;;;;3.54;76.05;98768.50;5093086;28;20517;-65
2020/12/01 11:39:09;;;;;;;16.77;11.63;;;;;;;3.53;76.36;98765.06;5093995;28;20387;-65
2020/12/01 11:41:36;;;;;;;22.33;14.90;;;;;;;3.46;76.25;98770.03;5094378;28;20390;-65
2020/12/01 11:44:04;;;;;;;19.08;11.65;;;;;;;3.45;76.27;98768.41;5094478;28;20044;-65
2020/12/01 11:46:31;;;;;;;20.50;13.82;;;;;;;3.46;76.33;98769.22;5094167;28;20040;-65
2020/12/01 11:49:01;;;;;;;15.35;11.75;;;;;;;3.50;76.30;98770.56;5093940;28;20051;-65
2020/12/01 11:51:36;;;;;;;17.52;12.93;;;;;;;3.53;76.31;98769.47;5094125;28;20055;-65
2020/12/01 11:54:03;;;;;;;14.57;10.60;;;;;;;3.41;76.19;98774.91;5094493;28;20048;-65
2020/12/01 11:56:30;;;;;;;14.70;10.80;;;;;;;3.42;76.21;98768.69;5094262;28;20039;-64
2020/12/01 11:58:57;;;;;;;15.18;11.10;;;;;;;3.40;76.33;98769.84;5093610;28;20046;-66
2020/12/01 12:01:24;;;;;;;13.68;10.30;;;;;;;3.39;76.11;98778.66;5092627;28;20040;-65
2020/12/01 12:03:51;;;;;;;12.68;10.80;;;;;;;3.40;76.55;98777.69;5093917;28;20436;-65
2020/12/01 12:06:18;;;;;;;14.43;10.65;;;;;;;3.41;76.43;98774.91;5092474;28;20447;-66